Accueil
METAR-TAF:

METAR-TAF

Aéroports :

Benson, Angleterre

latitude: 51-37N, longitude: 001-05W, altitude: 63 m

Observation

Le bulletin a été fait il y a 23 minutes, à 20:20 UTC
Vent 10 kt de sud
Température 13°C
Humidité 88%
Pression 1026 hPa
Visibilité 10 km ou plus
Quelques nuages à une hauteur de 3800 ft

METAR: EGUB 062020Z 19010KT 9999 FEW038 13/11 Q1026 NOSIG RMK BLU BLU

Heure: 21:43 (20:43 UTC)

Prévision

Le bulletin a été fait il y a 1 heure et 30 minutes, à 19:13 UTC
Prévision valable du 06 à 21 UTC au 06 à 24 UTC
Vent 9 kt de sud/sud-ouest
Visibilité 10 km ou plus
Quelques nuages à une hauteur de 4800 ft

TAF: EGUB 061913Z 0621/0624 20009KT 9999 FEW048

Observations et prévisions météorologiques de plus de 4000 aéroports (messages METAR et TAF).

Les stations disponibles sont représentées par des disques jaunes et rouges sur la carte.

Passer la souris dessus pour voir le nom de la station.

Cliquer dessus pour voir les observations et prévisions météorologiques.

Pour changer de carte: cliquez sur les boutons verts avec une croix noire pour zoomer, sur le bouton vert avec un tiret pour effectuer un zoom arrière, ou sur les flèches vertes pour les cartes adjacentes.


METAR-TAF: